Terminal Aerodrome Forecast
Issued by NWS Jackson, MS

Home | Current Version | Previous Version | Text Only | Print | Product List | Glossary On
Versions: 1 2 3 4 5 6 7 8 9 10 11 12
000
FTUS44 KJAN 081720
TAFGLH
TAF
KGLH 081720Z 0818/0918 31019G28KT P6SM SKC
     FM090100 29011KT P6SM SKC
     FM091200 29015G21KT P6SM SKC=

USA.gov is the U.S. government's official web portal to all federal, state and local government web resources and services.